»·PEaware :: N232MZ L52-L88

N232MZ :: L52-L88

FLIGHT INFORMATION

Flight Status: Arrived
Operator: Privately registered:
United States
More flights under this callsign
Pilot: Joe F. (27048)
Aircraft: CESSNA 172 SKYHAWK
(C172)
More flights by this aircraft type
Origin: L52 Oceano Co
United States
Destination: L88 New Cuyama
United States
More flights between these airports :: More routes between these airports
Route: L52 WYNNR L88
File this flight plan on PilotEdge
Remarks:
Altitude:
(Current/Filed)
3,000ft
Speed:
(Current/Filed)
120kts
Departed: 02-Dec-19 09:29 PM
Arrived: 02-Dec-19 10:06 PM
Distance/Time
Traveled:
47nm/0:36
Distance/Time
To Go:
Arrived

Flight Plot

Page will automatically refresh every two minutes.


Map Options




Map Legend


Flown Route
Filed Route
Departure Airport
Arrival Airport
Navaid (VOR, NDB)
Fix

Horizontal Profiles

Position Reports

Time Latitude Longitude Heading Altitude Ground
Speed
02-Dec-19 21:14 35.103452 -120.624821 213 18ft 0kts
02-Dec-19 21:15 35.103452 -120.624821 213 18ft 0kts
02-Dec-19 21:16 35.103452 -120.624821 213 18ft 0kts
02-Dec-19 21:17 35.103452 -120.624821 213 18ft 0kts
02-Dec-19 21:18 35.103452 -120.624821 213 18ft 0kts
02-Dec-19 21:19 35.103452 -120.624821 213 18ft 0kts
02-Dec-19 21:20 35.103452 -120.624821 213 18ft 0kts
02-Dec-19 21:21 35.103427 -120.624841 213 18ft 0kts
02-Dec-19 21:22 35.103427 -120.624841 213 18ft 0kts
02-Dec-19 21:23 35.103377 -120.624880 211 18ft 0kts
02-Dec-19 21:24 35.103373 -120.624890 253 18ft 0kts
02-Dec-19 21:25 35.103452 -120.624820 213 18ft 0kts
02-Dec-19 21:26 35.103541 -120.625282 238 18ft 0kts
02-Dec-19 21:27 35.103369 -120.625452 202 18ft 10kts
02-Dec-19 21:28 35.094862 -120.610592 123 636ft 59kts
02-Dec-19 21:29 35.103644 -120.594684 33 1447ft 65kts
02-Dec-19 21:30 35.120259 -120.586173 24 2315ft 66kts
02-Dec-19 21:31 35.128918 -120.562352 88 2984ft 96kts
02-Dec-19 21:32 35.127091 -120.523633 97 2998ft 113kts
02-Dec-19 21:33 35.118509 -120.488208 115 2999ft 107kts
02-Dec-19 21:34 35.113295 -120.453060 87 2981ft 108kts
02-Dec-19 21:35 35.114340 -120.416805 88 2999ft 106kts
02-Dec-19 21:36 35.115169 -120.383013 87 3311ft 80kts
02-Dec-19 21:37 35.116004 -120.355880 87 3507ft 97kts
02-Dec-19 21:38 35.116966 -120.318689 88 3500ft 115kts
02-Dec-19 21:39 35.117631 -120.279112 89 3500ft 116kts
02-Dec-19 21:40 35.118208 -120.244630 88 3992ft 95kts
02-Dec-19 21:41 35.119095 -120.207858 97 3999ft 114kts
02-Dec-19 21:42 35.105399 -120.172266 117 4000ft 116kts
02-Dec-19 21:43 35.090506 -120.136932 117 4000ft 116kts
02-Dec-19 21:44 35.081365 -120.099031 92 3999ft 116kts
02-Dec-19 21:45 35.085389 -120.059758 90 3999ft 116kts
02-Dec-19 21:46 35.075939 -120.022723 131 3999ft 116kts
02-Dec-19 21:47 35.054720 -119.992666 129 4000ft 116kts
02-Dec-19 21:48 35.034103 -119.961853 128 3999ft 116kts
02-Dec-19 21:49 35.013997 -119.930794 126 4000ft 116kts
02-Dec-19 21:50 34.995700 -119.897960 121 3999ft 116kts
02-Dec-19 21:51 34.982963 -119.861654 105 4000ft 116kts
02-Dec-19 21:52 34.978517 -119.822613 85 4089ft 107kts
02-Dec-19 21:53 34.969915 -119.785866 122 3598ft 116kts
02-Dec-19 21:54 34.952195 -119.760668 121 3492ft 93kts
02-Dec-19 21:55 34.940076 -119.733821 113 3557ft 90kts
02-Dec-19 21:56 34.932416 -119.703973 117 3577ft 97kts
02-Dec-19 21:57 34.920721 -119.678687 117 3451ft 80kts
02-Dec-19 21:58 34.927477 -119.656734 32 3396ft 88kts
02-Dec-19 21:59 34.948067 -119.652848 322 3284ft 86kts
02-Dec-19 22:00 34.963507 -119.672989 301 3088ft 71kts
02-Dec-19 22:01 34.971824 -119.694377 288 3066ft 74kts
02-Dec-19 22:02 34.975047 -119.715067 242 3069ft 61kts
02-Dec-19 22:03 34.959290 -119.726024 167 3089ft 80kts
02-Dec-19 22:04 34.948094 -119.706212 110 2516ft 71kts
02-Dec-19 22:05 34.941220 -119.688599 112 2163ft 32kts
02-Dec-19 22:06 34.939425 -119.684226 344 2183ft 0kts
02-Dec-19 22:07 34.941357 -119.688974 296 2162ft 19kts
02-Dec-19 22:08 34.943134 -119.690866 22 2155ft 3kts
02-Dec-19 22:09 34.943370 -119.691089 207 2154ft 0kts
02-Dec-19 22:10 34.943371 -119.691089 207 2154ft 0kts
02-Dec-19 22:11 34.943371 -119.691089 207 2154ft 0kts
02-Dec-19 22:12 34.943371 -119.691089 207 2154ft 0kts
02-Dec-19 22:13 34.943371 -119.691089 207 2154ft 0kts
02-Dec-19 22:14 34.943371 -119.691089 207 2154ft 0kts
02-Dec-19 22:15 34.943371 -119.691089 207 2154ft 0kts
02-Dec-19 22:16 34.943371 -119.691089 207 2154ft 0kts
02-Dec-19 22:17 34.943371 -119.691089 207 2154ft 0kts
02-Dec-19 22:18 34.943371 -119.691089 207 2154ft 0kts
02-Dec-19 22:19 34.943371 -119.691089 207 2154ft 0kts

Navigation Log

Ident Type
Flight plan parsing failed, navigation log unavailable